sensor_id;sensor_type;location;lat;lon;timestamp;P1;durP1;ratioP1;P2;durP2;ratioP2
35084;SDS011;21267;51.032;6.998;2024-01-16T00:01:00;12.27;;;6.55;;
35084;SDS011;21267;51.032;6.998;2024-01-16T00:03:28;14.25;;;9.00;;
35084;SDS011;21267;51.032;6.998;2024-01-16T00:05:55;10.45;;;7.35;;
35084;SDS011;21267;51.032;6.998;2024-01-16T00:08:22;8.02;;;4.88;;
35084;SDS011;21267;51.032;6.998;2024-01-16T00:10:48;10.65;;;7.82;;
35084;SDS011;21267;51.032;6.998;2024-01-16T00:13:16;9.95;;;7.10;;
35084;SDS011;21267;51.032;6.998;2024-01-16T00:15:43;8.70;;;5.78;;
35084;SDS011;21267;51.032;6.998;2024-01-16T00:18:10;10.48;;;5.40;;
35084;SDS011;21267;51.032;6.998;2024-01-16T00:20:37;15.27;;;7.80;;
35084;SDS011;21267;51.032;6.998;2024-01-16T00:23:04;13.90;;;7.28;;
35084;SDS011;21267;51.032;6.998;2024-01-16T00:25:31;10.10;;;7.03;;
35084;SDS011;21267;51.032;6.998;2024-01-16T00:27:57;10.23;;;6.63;;
35084;SDS011;21267;51.032;6.998;2024-01-16T00:30:24;13.38;;;9.35;;
35084;SDS011;21267;51.032;6.998;2024-01-16T00:32:51;7.63;;;5.75;;
35084;SDS011;21267;51.032;6.998;2024-01-16T00:35:18;11.57;;;7.45;;
35084;SDS011;21267;51.032;6.998;2024-01-16T00:37:47;12.13;;;9.13;;
35084;SDS011;21267;51.032;6.998;2024-01-16T00:40:14;9.30;;;6.88;;
35084;SDS011;21267;51.032;6.998;2024-01-16T00:42:41;7.95;;;5.13;;
35084;SDS011;21267;51.032;6.998;2024-01-16T00:45:08;12.37;;;5.93;;
35084;SDS011;21267;51.032;6.998;2024-01-16T00:47:35;9.87;;;5.23;;
35084;SDS011;21267;51.032;6.998;2024-01-16T00:50:02;12.30;;;8.17;;
35084;SDS011;21267;51.032;6.998;2024-01-16T00:52:31;12.27;;;7.68;;
35084;SDS011;21267;51.032;6.998;2024-01-16T00:54:58;16.40;;;8.18;;
35084;SDS011;21267;51.032;6.998;2024-01-16T01:01:39;11.13;;;7.35;;
35084;SDS011;21267;51.032;6.998;2024-01-16T01:04:19;15.23;;;10.00;;
35084;SDS011;21267;51.032;6.998;2024-01-16T01:07:00;17.25;;;9.35;;
35084;SDS011;21267;51.032;6.998;2024-01-16T01:09:40;10.60;;;7.57;;
35084;SDS011;21267;51.032;6.998;2024-01-16T01:12:21;12.48;;;9.90;;
35084;SDS011;21267;51.032;6.998;2024-01-16T01:15:01;10.07;;;7.35;;
35084;SDS011;21267;51.032;6.998;2024-01-16T01:17:41;13.25;;;9.65;;
35084;SDS011;21267;51.032;6.998;2024-01-16T01:20:22;15.10;;;9.98;;
35084;SDS011;21267;51.032;6.998;2024-01-16T01:22:49;15.57;;;12.27;;
35084;SDS011;21267;51.032;6.998;2024-01-16T01:25:16;18.85;;;13.02;;
35084;SDS011;21267;51.032;6.998;2024-01-16T01:27:43;14.63;;;10.57;;
35084;SDS011;21267;51.032;6.998;2024-01-16T01:30:11;12.10;;;9.90;;
35084;SDS011;21267;51.032;6.998;2024-01-16T01:32:39;12.10;;;7.70;;
35084;SDS011;21267;51.032;6.998;2024-01-16T01:35:06;10.65;;;8.55;;
35084;SDS011;21267;51.032;6.998;2024-01-16T01:37:33;16.02;;;11.02;;
35084;SDS011;21267;51.032;6.998;2024-01-16T01:40:00;16.92;;;10.70;;
35084;SDS011;21267;51.032;6.998;2024-01-16T01:42:27;16.97;;;11.10;;
35084;SDS011;21267;51.032;6.998;2024-01-16T01:44:54;13.88;;;8.88;;
35084;SDS011;21267;51.032;6.998;2024-01-16T01:47:21;9.40;;;7.23;;
35084;SDS011;21267;51.032;6.998;2024-01-16T01:49:48;12.32;;;6.93;;
35084;SDS011;21267;51.032;6.998;2024-01-16T01:52:15;12.77;;;5.55;;
35084;SDS011;21267;51.032;6.998;2024-01-16T01:54:43;13.52;;;8.48;;
35084;SDS011;21267;51.032;6.998;2024-01-16T01:57:11;15.75;;;9.90;;
35084;SDS011;21267;51.032;6.998;2024-01-16T01:59:38;15.77;;;9.48;;
35084;SDS011;21267;51.032;6.998;2024-01-16T02:02:05;17.10;;;10.00;;
35084;SDS011;21267;51.032;6.998;2024-01-16T02:04:32;17.75;;;9.20;;
35084;SDS011;21267;51.032;6.998;2024-01-16T02:07:00;14.38;;;7.35;;
35084;SDS011;21267;51.032;6.998;2024-01-16T02:09:28;16.35;;;8.63;;
35084;SDS011;21267;51.032;6.998;2024-01-16T02:11:55;12.07;;;7.82;;
35084;SDS011;21267;51.032;6.998;2024-01-16T02:14:22;15.20;;;7.47;;
35084;SDS011;21267;51.032;6.998;2024-01-16T02:16:49;14.40;;;8.80;;
35084;SDS011;21267;51.032;6.998;2024-01-16T02:19:17;10.27;;;7.82;;
35084;SDS011;21267;51.032;6.998;2024-01-16T02:21:47;14.57;;;8.80;;
35084;SDS011;21267;51.032;6.998;2024-01-16T02:24:17;14.48;;;8.68;;
35084;SDS011;21267;51.032;6.998;2024-01-16T02:26:45;9.02;;;7.05;;
35084;SDS011;21267;51.032;6.998;2024-01-16T02:29:12;15.18;;;8.65;;
35084;SDS011;21267;51.032;6.998;2024-01-16T02:31:40;12.95;;;8.82;;
35084;SDS011;21267;51.032;6.998;2024-01-16T02:34:06;14.23;;;9.02;;
35084;SDS011;21267;51.032;6.998;2024-01-16T02:36:35;13.82;;;9.00;;
35084;SDS011;21267;51.032;6.998;2024-01-16T02:39:02;12.57;;;7.90;;
35084;SDS011;21267;51.032;6.998;2024-01-16T02:41:30;10.18;;;4.80;;
35084;SDS011;21267;51.032;6.998;2024-01-16T02:43:57;15.15;;;8.68;;
35084;SDS011;21267;51.032;6.998;2024-01-16T02:46:24;7.88;;;6.53;;
35084;SDS011;21267;51.032;6.998;2024-01-16T02:48:51;12.52;;;6.93;;
35084;SDS011;21267;51.032;6.998;2024-01-16T02:51:18;14.88;;;6.85;;
35084;SDS011;21267;51.032;6.998;2024-01-16T02:53:44;6.28;;;4.28;;
35084;SDS011;21267;51.032;6.998;2024-01-16T02:56:11;13.30;;;6.00;;
35084;SDS011;21267;51.032;6.998;2024-01-16T02:58:38;9.45;;;5.38;;
35084;SDS011;21267;51.032;6.998;2024-01-16T03:01:05;6.50;;;4.13;;
35084;SDS011;21267;51.032;6.998;2024-01-16T03:03:32;9.07;;;5.33;;
35084;SDS011;21267;51.032;6.998;2024-01-16T03:05:59;13.17;;;6.43;;
35084;SDS011;21267;51.032;6.998;2024-01-16T03:08:26;13.53;;;6.67;;
35084;SDS011;21267;51.032;6.998;2024-01-16T03:10:53;8.45;;;3.72;;
35084;SDS011;21267;51.032;6.998;2024-01-16T03:13:19;10.35;;;5.75;;
35084;SDS011;21267;51.032;6.998;2024-01-16T03:15:46;9.45;;;6.25;;
35084;SDS011;21267;51.032;6.998;2024-01-16T03:18:13;12.75;;;7.15;;
35084;SDS011;21267;51.032;6.998;2024-01-16T03:20:40;11.38;;;5.90;;
35084;SDS011;21267;51.032;6.998;2024-01-16T03:23:07;10.60;;;5.57;;
35084;SDS011;21267;51.032;6.998;2024-01-16T03:25:34;12.32;;;6.72;;
35084;SDS011;21267;51.032;6.998;2024-01-16T03:28:06;10.57;;;5.80;;
35084;SDS011;21267;51.032;6.998;2024-01-16T03:30:37;7.45;;;5.55;;
35084;SDS011;21267;51.032;6.998;2024-01-16T03:33:04;12.60;;;7.73;;
35084;SDS011;21267;51.032;6.998;2024-01-16T03:35:31;16.55;;;9.52;;
35084;SDS011;21267;51.032;6.998;2024-01-16T03:38:00;10.40;;;7.28;;
35084;SDS011;21267;51.032;6.998;2024-01-16T03:40:28;15.63;;;8.10;;
35084;SDS011;21267;51.032;6.998;2024-01-16T03:43:01;16.40;;;7.82;;
35084;SDS011;21267;51.032;6.998;2024-01-16T03:45:28;15.43;;;9.43;;
35084;SDS011;21267;51.032;6.998;2024-01-16T03:47:56;9.40;;;6.30;;
35084;SDS011;21267;51.032;6.998;2024-01-16T03:50:23;11.07;;;6.53;;
35084;SDS011;21267;51.032;6.998;2024-01-16T03:52:50;16.77;;;8.35;;
35084;SDS011;21267;51.032;6.998;2024-01-16T03:55:16;13.20;;;8.98;;
35084;SDS011;21267;51.032;6.998;2024-01-16T03:57:43;14.07;;;8.05;;
35084;SDS011;21267;51.032;6.998;2024-01-16T04:00:13;12.25;;;7.93;;
35084;SDS011;21267;51.032;6.998;2024-01-16T04:02:40;12.98;;;8.43;;
35084;SDS011;21267;51.032;6.998;2024-01-16T04:05:07;11.57;;;7.53;;
35084;SDS011;21267;51.032;6.998;2024-01-16T04:07:34;13.63;;;6.60;;
35084;SDS011;21267;51.032;6.998;2024-01-16T04:10:01;9.40;;;5.53;;
35084;SDS011;21267;51.032;6.998;2024-01-16T04:12:29;12.45;;;7.28;;
35084;SDS011;21267;51.032;6.998;2024-01-16T04:14:55;11.00;;;7.00;;
35084;SDS011;21267;51.032;6.998;2024-01-16T04:17:22;7.40;;;4.63;;
35084;SDS011;21267;51.032;6.998;2024-01-16T04:19:49;15.10;;;9.38;;
35084;SDS011;21267;51.032;6.998;2024-01-16T04:22:15;8.90;;;5.55;;
35084;SDS011;21267;51.032;6.998;2024-01-16T04:24:42;13.35;;;9.52;;
35084;SDS011;21267;51.032;6.998;2024-01-16T04:27:11;12.18;;;9.68;;
35084;SDS011;21267;51.032;6.998;2024-01-16T04:29:38;14.88;;;10.18;;
35084;SDS011;21267;51.032;6.998;2024-01-16T04:32:05;14.37;;;6.40;;
35084;SDS011;21267;51.032;6.998;2024-01-16T04:34:32;13.13;;;10.45;;
35084;SDS011;21267;51.032;6.998;2024-01-16T04:36:58;11.18;;;7.85;;
35084;SDS011;21267;51.032;6.998;2024-01-16T04:39:26;15.52;;;7.18;;
35084;SDS011;21267;51.032;6.998;2024-01-16T04:41:53;9.18;;;5.65;;
35084;SDS011;21267;51.032;6.998;2024-01-16T04:44:19;13.07;;;8.30;;
35084;SDS011;21267;51.032;6.998;2024-01-16T04:46:46;15.25;;;7.85;;
35084;SDS011;21267;51.032;6.998;2024-01-16T04:49:13;13.65;;;7.07;;
35084;SDS011;21267;51.032;6.998;2024-01-16T04:51:40;12.88;;;5.90;;
35084;SDS011;21267;51.032;6.998;2024-01-16T04:54:07;8.55;;;5.18;;
35084;SDS011;21267;51.032;6.998;2024-01-16T04:56:33;17.27;;;9.10;;
35084;SDS011;21267;51.032;6.998;2024-01-16T04:59:00;15.27;;;8.88;;
35084;SDS011;21267;51.032;6.998;2024-01-16T05:01:27;15.85;;;8.75;;
35084;SDS011;21267;51.032;6.998;2024-01-16T05:03:53;13.73;;;8.27;;
35084;SDS011;21267;51.032;6.998;2024-01-16T05:06:21;15.65;;;10.10;;
35084;SDS011;21267;51.032;6.998;2024-01-16T05:08:48;19.67;;;7.60;;
35084;SDS011;21267;51.032;6.998;2024-01-16T05:11:15;8.10;;;4.50;;
35084;SDS011;21267;51.032;6.998;2024-01-16T05:13:42;13.77;;;8.50;;
35084;SDS011;21267;51.032;6.998;2024-01-16T05:16:08;21.67;;;10.00;;
35084;SDS011;21267;51.032;6.998;2024-01-16T05:18:35;12.23;;;7.47;;
35084;SDS011;21267;51.032;6.998;2024-01-16T05:21:03;16.13;;;9.33;;
35084;SDS011;21267;51.032;6.998;2024-01-16T05:23:31;17.67;;;10.77;;
35084;SDS011;21267;51.032;6.998;2024-01-16T05:25:57;17.63;;;11.73;;
35084;SDS011;21267;51.032;6.998;2024-01-16T05:28:24;21.23;;;12.18;;
35084;SDS011;21267;51.032;6.998;2024-01-16T05:30:51;16.85;;;11.73;;
35084;SDS011;21267;51.032;6.998;2024-01-16T05:33:17;19.17;;;11.63;;
35084;SDS011;21267;51.032;6.998;2024-01-16T05:35:44;15.77;;;12.00;;
35084;SDS011;21267;51.032;6.998;2024-01-16T05:38:11;13.32;;;9.90;;
35084;SDS011;21267;51.032;6.998;2024-01-16T05:40:39;20.98;;;11.45;;
35084;SDS011;21267;51.032;6.998;2024-01-16T05:43:06;17.38;;;8.40;;
35084;SDS011;21267;51.032;6.998;2024-01-16T05:45:33;22.05;;;11.00;;
35084;SDS011;21267;51.032;6.998;2024-01-16T05:48:00;17.40;;;9.23;;
35084;SDS011;21267;51.032;6.998;2024-01-16T05:50:28;13.15;;;7.85;;
35084;SDS011;21267;51.032;6.998;2024-01-16T05:52:56;18.13;;;8.35;;
35084;SDS011;21267;51.032;6.998;2024-01-16T05:55:23;17.50;;;8.35;;
35084;SDS011;21267;51.032;6.998;2024-01-16T05:57:50;16.20;;;8.25;;
35084;SDS011;21267;51.032;6.998;2024-01-16T06:00:18;10.05;;;6.03;;
35084;SDS011;21267;51.032;6.998;2024-01-16T06:02:44;13.93;;;7.70;;
35084;SDS011;21267;51.032;6.998;2024-01-16T06:05:11;13.15;;;7.03;;
35084;SDS011;21267;51.032;6.998;2024-01-16T06:07:38;15.07;;;7.18;;
35084;SDS011;21267;51.032;6.998;2024-01-16T06:10:06;12.32;;;6.55;;
35084;SDS011;21267;51.032;6.998;2024-01-16T06:12:33;17.07;;;6.67;;
35084;SDS011;21267;51.032;6.998;2024-01-16T06:15:01;11.25;;;6.15;;
35084;SDS011;21267;51.032;6.998;2024-01-16T06:17:27;18.23;;;5.45;;
35084;SDS011;21267;51.032;6.998;2024-01-16T06:19:54;17.17;;;6.00;;
35084;SDS011;21267;51.032;6.998;2024-01-16T06:22:23;14.02;;;4.97;;
35084;SDS011;21267;51.032;6.998;2024-01-16T06:24:50;14.52;;;5.32;;
35084;SDS011;21267;51.032;6.998;2024-01-16T06:27:16;13.25;;;5.22;;
35084;SDS011;21267;51.032;6.998;2024-01-16T06:29:45;13.20;;;4.82;;
35084;SDS011;21267;51.032;6.998;2024-01-16T06:32:13;12.57;;;4.88;;
35084;SDS011;21267;51.032;6.998;2024-01-16T06:34:40;15.70;;;4.63;;
35084;SDS011;21267;51.032;6.998;2024-01-16T06:37:07;12.65;;;3.78;;
35084;SDS011;21267;51.032;6.998;2024-01-16T06:39:34;16.47;;;4.53;;
35084;SDS011;21267;51.032;6.998;2024-01-16T06:42:02;12.48;;;4.60;;
35084;SDS011;21267;51.032;6.998;2024-01-16T06:44:35;14.80;;;3.85;;
35084;SDS011;21267;51.032;6.998;2024-01-16T06:47:04;12.27;;;3.28;;
35084;SDS011;21267;51.032;6.998;2024-01-16T06:52:00;9.60;;;3.17;;
35084;SDS011;21267;51.032;6.998;2024-01-16T06:54:29;7.13;;;3.83;;
35084;SDS011;21267;51.032;6.998;2024-01-16T06:56:59;9.52;;;3.03;;
35084;SDS011;21267;51.032;6.998;2024-01-16T07:33:39;8.27;;;3.97;;
35084;SDS011;21267;51.032;6.998;2024-01-16T07:36:07;13.30;;;4.63;;
35084;SDS011;21267;51.032;6.998;2024-01-16T07:38:35;11.82;;;4.82;;
35084;SDS011;21267;51.032;6.998;2024-01-16T07:41:05;12.32;;;4.35;;
35084;SDS011;21267;51.032;6.998;2024-01-16T07:43:35;12.25;;;4.70;;
35084;SDS011;21267;51.032;6.998;2024-01-16T07:46:02;9.88;;;4.60;;
35084;SDS011;21267;51.032;6.998;2024-01-16T07:48:33;16.48;;;5.22;;
35084;SDS011;21267;51.032;6.998;2024-01-16T07:51:01;23.40;;;8.80;;
35084;SDS011;21267;51.032;6.998;2024-01-16T07:53:28;5.10;;;2.83;;
35084;SDS011;21267;51.032;6.998;2024-01-16T07:55:56;9.43;;;4.30;;
35084;SDS011;21267;51.032;6.998;2024-01-16T07:58:23;13.30;;;4.47;;
35084;SDS011;21267;51.032;6.998;2024-01-16T08:00:50;6.13;;;3.20;;
35084;SDS011;21267;51.032;6.998;2024-01-16T08:03:18;10.20;;;3.08;;
35084;SDS011;21267;51.032;6.998;2024-01-16T08:05:44;11.43;;;4.05;;
35084;SDS011;21267;51.032;6.998;2024-01-16T08:08:11;9.70;;;4.80;;
35084;SDS011;21267;51.032;6.998;2024-01-16T08:10:40;9.00;;;4.47;;
35084;SDS011;21267;51.032;6.998;2024-01-16T08:13:08;5.50;;;3.28;;
35084;SDS011;21267;51.032;6.998;2024-01-16T08:15:35;8.77;;;3.45;;
35084;SDS011;21267;51.032;6.998;2024-01-16T08:18:03;11.32;;;4.28;;
35084;SDS011;21267;51.032;6.998;2024-01-16T08:20:32;12.63;;;4.15;;
35084;SDS011;21267;51.032;6.998;2024-01-16T08:22:58;14.93;;;3.80;;
35084;SDS011;21267;51.032;6.998;2024-01-16T08:25:25;5.85;;;2.75;;
35084;SDS011;21267;51.032;6.998;2024-01-16T08:27:52;6.13;;;2.50;;
35084;SDS011;21267;51.032;6.998;2024-01-16T08:30:19;12.93;;;4.18;;
35084;SDS011;21267;51.032;6.998;2024-01-16T08:32:46;7.10;;;3.27;;
35084;SDS011;21267;51.032;6.998;2024-01-16T08:35:13;7.32;;;2.47;;
35084;SDS011;21267;51.032;6.998;2024-01-16T08:37:40;4.05;;;2.22;;
35084;SDS011;21267;51.032;6.998;2024-01-16T08:40:06;7.88;;;2.83;;
35084;SDS011;21267;51.032;6.998;2024-01-16T08:42:33;8.07;;;2.30;;
35084;SDS011;21267;51.032;6.998;2024-01-16T08:45:00;10.63;;;3.50;;
35084;SDS011;21267;51.032;6.998;2024-01-16T08:47:27;11.35;;;3.08;;
35084;SDS011;21267;51.032;6.998;2024-01-16T08:49:54;10.47;;;2.80;;
35084;SDS011;21267;51.032;6.998;2024-01-16T08:52:21;12.05;;;3.55;;
35084;SDS011;21267;51.032;6.998;2024-01-16T08:54:47;7.70;;;2.53;;
35084;SDS011;21267;51.032;6.998;2024-01-16T08:57:14;5.53;;;2.60;;
35084;SDS011;21267;51.032;6.998;2024-01-16T08:59:43;11.75;;;2.75;;
35084;SDS011;21267;51.032;6.998;2024-01-16T09:02:10;8.90;;;2.63;;
35084;SDS011;21267;51.032;6.998;2024-01-16T09:04:37;4.13;;;1.77;;
35084;SDS011;21267;51.032;6.998;2024-01-16T09:07:04;7.15;;;2.90;;
35084;SDS011;21267;51.032;6.998;2024-01-16T09:11:59;8.63;;;3.58;;
35084;SDS011;21267;51.032;6.998;2024-01-16T09:14:26;11.32;;;3.05;;
35084;SDS011;21267;51.032;6.998;2024-01-16T09:16:53;10.13;;;3.15;;
35084;SDS011;21267;51.032;6.998;2024-01-16T09:19:20;5.53;;;2.30;;
35084;SDS011;21267;51.032;6.998;2024-01-16T09:21:48;7.70;;;2.85;;
35084;SDS011;21267;51.032;6.998;2024-01-16T09:24:15;6.87;;;3.63;;
35084;SDS011;21267;51.032;6.998;2024-01-16T09:26:42;7.47;;;2.47;;
35084;SDS011;21267;51.032;6.998;2024-01-16T09:29:09;8.32;;;3.17;;
35084;SDS011;21267;51.032;6.998;2024-01-16T09:31:36;11.20;;;3.38;;
35084;SDS011;21267;51.032;6.998;2024-01-16T09:34:03;7.70;;;2.22;;
35084;SDS011;21267;51.032;6.998;2024-01-16T09:36:35;5.20;;;2.60;;
35084;SDS011;21267;51.032;6.998;2024-01-16T09:39:07;7.25;;;2.50;;
35084;SDS011;21267;51.032;6.998;2024-01-16T09:41:45;10.43;;;2.65;;
35084;SDS011;21267;51.032;6.998;2024-01-16T09:46:39;6.90;;;2.60;;
35084;SDS011;21267;51.032;6.998;2024-01-16T09:49:11;8.52;;;2.80;;
35084;SDS011;21267;51.032;6.998;2024-01-16T09:51:38;8.70;;;3.13;;
35084;SDS011;21267;51.032;6.998;2024-01-16T09:54:05;4.68;;;2.60;;
35084;SDS011;21267;51.032;6.998;2024-01-16T09:56:35;10.05;;;2.95;;
35084;SDS011;21267;51.032;6.998;2024-01-16T09:59:10;12.45;;;3.15;;
35084;SDS011;21267;51.032;6.998;2024-01-16T10:01:41;12.10;;;2.80;;
35084;SDS011;21267;51.032;6.998;2024-01-16T10:04:09;8.25;;;2.92;;
35084;SDS011;21267;51.032;6.998;2024-01-16T10:06:35;2.53;;;1.67;;
35084;SDS011;21267;51.032;6.998;2024-01-16T10:09:04;7.25;;;2.10;;
35084;SDS011;21267;51.032;6.998;2024-01-16T10:11:33;13.43;;;2.67;;
35084;SDS011;21267;51.032;6.998;2024-01-16T10:17:13;13.03;;;3.67;;
35084;SDS011;21267;51.032;6.998;2024-01-16T10:19:37;9.23;;;3.10;;
35084;SDS011;21267;51.032;6.998;2024-01-16T10:22:21;6.65;;;2.38;;
35084;SDS011;21267;51.032;6.998;2024-01-16T10:25:03;5.55;;;2.42;;
35084;SDS011;21267;51.032;6.998;2024-01-16T10:27:30;6.70;;;2.70;;
35084;SDS011;21267;51.032;6.998;2024-01-16T10:29:57;8.37;;;2.27;;
35084;SDS011;21267;51.032;6.998;2024-01-16T10:32:33;5.40;;;3.00;;
35084;SDS011;21267;51.032;6.998;2024-01-16T10:35:08;2.42;;;1.48;;
35084;SDS011;21267;51.032;6.998;2024-01-16T10:37:44;6.70;;;2.53;;
35084;SDS011;21267;51.032;6.998;2024-01-16T10:40:17;9.47;;;3.73;;
35084;SDS011;21267;51.032;6.998;2024-01-16T10:42:57;7.40;;;2.95;;
35084;SDS011;21267;51.032;6.998;2024-01-16T10:45:33;11.82;;;4.05;;
35084;SDS011;21267;51.032;6.998;2024-01-16T10:48:03;9.45;;;3.22;;
35084;SDS011;21267;51.032;6.998;2024-01-16T10:50:33;8.30;;;2.88;;
35084;SDS011;21267;51.032;6.998;2024-01-16T10:53:05;10.23;;;3.45;;
35084;SDS011;21267;51.032;6.998;2024-01-16T10:55:51;10.77;;;3.35;;
35084;SDS011;21267;51.032;6.998;2024-01-16T10:58:22;7.68;;;2.60;;
35084;SDS011;21267;51.032;6.998;2024-01-16T11:00:50;11.93;;;3.67;;
35084;SDS011;21267;51.032;6.998;2024-01-16T11:03:43;9.10;;;2.40;;
35084;SDS011;21267;51.032;6.998;2024-01-16T11:06:17;9.43;;;2.00;;
35084;SDS011;21267;51.032;6.998;2024-01-16T11:08:46;6.47;;;1.95;;
35084;SDS011;21267;51.032;6.998;2024-01-16T11:13:41;4.88;;;1.80;;
35084;SDS011;21267;51.032;6.998;2024-01-16T11:16:11;6.88;;;2.50;;
35084;SDS011;21267;51.032;6.998;2024-01-16T11:18:38;4.28;;;1.77;;
35084;SDS011;21267;51.032;6.998;2024-01-16T11:21:15;3.85;;;1.30;;
35084;SDS011;21267;51.032;6.998;2024-01-16T11:23:44;7.07;;;2.17;;
35084;SDS011;21267;51.032;6.998;2024-01-16T11:26:26;6.85;;;2.50;;
35084;SDS011;21267;51.032;6.998;2024-01-16T11:29:01;7.55;;;2.50;;
35084;SDS011;21267;51.032;6.998;2024-01-16T11:31:54;1.58;;;0.88;;
35084;SDS011;21267;51.032;6.998;2024-01-16T11:37:12;10.50;;;3.53;;
35084;SDS011;21267;51.032;6.998;2024-01-16T11:39:40;4.35;;;2.20;;
35084;SDS011;21267;51.032;6.998;2024-01-16T11:44:48;4.97;;;2.13;;
35084;SDS011;21267;51.032;6.998;2024-01-16T11:47:21;3.78;;;1.65;;
35084;SDS011;21267;51.032;6.998;2024-01-16T11:49:50;3.92;;;2.08;;
35084;SDS011;21267;51.032;6.998;2024-01-16T11:52:43;6.78;;;2.58;;
35084;SDS011;21267;51.032;6.998;2024-01-16T12:00:26;11.03;;;2.90;;
35084;SDS011;21267;51.032;6.998;2024-01-16T12:02:56;7.55;;;2.63;;
35084;SDS011;21267;51.032;6.998;2024-01-16T12:05:23;5.78;;;2.40;;
35084;SDS011;21267;51.032;6.998;2024-01-16T12:07:51;5.43;;;1.83;;
35084;SDS011;21267;51.032;6.998;2024-01-16T12:10:20;5.47;;;1.83;;
35084;SDS011;21267;51.032;6.998;2024-01-16T12:12:48;7.90;;;3.17;;
35084;SDS011;21267;51.032;6.998;2024-01-16T12:15:21;7.93;;;3.17;;
35084;SDS011;21267;51.032;6.998;2024-01-16T12:18:00;6.22;;;2.60;;
35084;SDS011;21267;51.032;6.998;2024-01-16T12:20:29;9.70;;;2.65;;
35084;SDS011;21267;51.032;6.998;2024-01-16T12:25:25;5.80;;;1.67;;
35084;SDS011;21267;51.032;6.998;2024-01-16T12:30:57;6.97;;;2.50;;
35084;SDS011;21267;51.032;6.998;2024-01-16T12:33:24;10.40;;;3.30;;
35084;SDS011;21267;51.032;6.998;2024-01-16T12:35:59;7.68;;;3.10;;
35084;SDS011;21267;51.032;6.998;2024-01-16T12:38:28;13.73;;;4.70;;
35084;SDS011;21267;51.032;6.998;2024-01-16T12:40:54;8.82;;;3.67;;
35084;SDS011;21267;51.032;6.998;2024-01-16T12:43:21;7.18;;;3.42;;
35084;SDS011;21267;51.032;6.998;2024-01-16T12:45:55;14.48;;;5.03;;
35084;SDS011;21267;51.032;6.998;2024-01-16T12:48:24;7.95;;;3.40;;
35084;SDS011;21267;51.032;6.998;2024-01-16T12:50:59;10.13;;;3.20;;
35084;SDS011;21267;51.032;6.998;2024-01-16T12:56:03;8.35;;;3.95;;
35084;SDS011;21267;51.032;6.998;2024-01-16T12:58:34;7.60;;;3.00;;
35084;SDS011;21267;51.032;6.998;2024-01-16T13:01:23;7.78;;;2.90;;
35084;SDS011;21267;51.032;6.998;2024-01-16T13:04:05;7.90;;;3.60;;
35084;SDS011;21267;51.032;6.998;2024-01-16T13:06:34;9.93;;;3.55;;
35084;SDS011;21267;51.032;6.998;2024-01-16T13:09:09;9.20;;;3.42;;
35084;SDS011;21267;51.032;6.998;2024-01-16T13:11:45;10.40;;;4.10;;
35084;SDS011;21267;51.032;6.998;2024-01-16T13:14:17;11.85;;;4.47;;
35084;SDS011;21267;51.032;6.998;2024-01-16T13:16:52;11.95;;;3.95;;
35084;SDS011;21267;51.032;6.998;2024-01-16T13:19:22;10.80;;;3.70;;
35084;SDS011;21267;51.032;6.998;2024-01-16T13:21:49;11.23;;;3.83;;
35084;SDS011;21267;51.032;6.998;2024-01-16T13:24:16;7.28;;;3.30;;
35084;SDS011;21267;51.032;6.998;2024-01-16T13:26:50;12.18;;;3.85;;
35084;SDS011;21267;51.032;6.998;2024-01-16T13:29:18;11.77;;;2.63;;
35084;SDS011;21267;51.032;6.998;2024-01-16T13:34:12;6.20;;;2.85;;
35084;SDS011;21267;51.032;6.998;2024-01-16T13:36:40;7.13;;;2.72;;
35084;SDS011;21267;51.032;6.998;2024-01-16T13:39:29;10.35;;;3.33;;
35084;SDS011;21267;51.032;6.998;2024-01-16T13:41:58;6.95;;;2.45;;
35084;SDS011;21267;51.032;6.998;2024-01-16T13:44:25;10.13;;;3.03;;
35084;SDS011;21267;51.032;6.998;2024-01-16T13:46:52;8.05;;;2.80;;
35084;SDS011;21267;51.032;6.998;2024-01-16T13:49:35;8.23;;;2.95;;
35084;SDS011;21267;51.032;6.998;2024-01-16T13:52:02;10.52;;;3.25;;
35084;SDS011;21267;51.032;6.998;2024-01-16T13:54:29;10.68;;;4.53;;
35084;SDS011;21267;51.032;6.998;2024-01-16T13:56:57;9.40;;;3.50;;
35084;SDS011;21267;51.032;6.998;2024-01-16T13:59:34;7.38;;;3.72;;
35084;SDS011;21267;51.032;6.998;2024-01-16T14:02:02;8.15;;;3.55;;
35084;SDS011;21267;51.032;6.998;2024-01-16T14:04:32;10.20;;;4.45;;
35084;SDS011;21267;51.032;6.998;2024-01-16T14:06:59;9.00;;;3.67;;
35084;SDS011;21267;51.032;6.998;2024-01-16T14:09:39;9.23;;;4.35;;
35084;SDS011;21267;51.032;6.998;2024-01-16T14:12:11;5.72;;;3.40;;
35084;SDS011;21267;51.032;6.998;2024-01-16T14:14:39;8.20;;;3.92;;
35084;SDS011;21267;51.032;6.998;2024-01-16T14:17:09;9.40;;;4.13;;
35084;SDS011;21267;51.032;6.998;2024-01-16T14:19:36;7.70;;;4.03;;
35084;SDS011;21267;51.032;6.998;2024-01-16T14:22:05;11.05;;;4.28;;
35084;SDS011;21267;51.032;6.998;2024-01-16T14:24:32;8.87;;;3.80;;
35084;SDS011;21267;51.032;6.998;2024-01-16T14:26:58;10.25;;;5.00;;
35084;SDS011;21267;51.032;6.998;2024-01-16T14:29:25;10.02;;;4.75;;
35084;SDS011;21267;51.032;6.998;2024-01-16T14:31:53;9.10;;;3.83;;
35084;SDS011;21267;51.032;6.998;2024-01-16T14:34:23;8.43;;;3.90;;
35084;SDS011;21267;51.032;6.998;2024-01-16T14:36:51;10.52;;;4.00;;
35084;SDS011;21267;51.032;6.998;2024-01-16T14:39:19;14.02;;;5.18;;
35084;SDS011;21267;51.032;6.998;2024-01-16T14:41:52;27.65;;;15.98;;
35084;SDS011;21267;51.032;6.998;2024-01-16T14:44:20;14.20;;;6.72;;
35084;SDS011;21267;51.032;6.998;2024-01-16T14:46:46;8.68;;;4.38;;
35084;SDS011;21267;51.032;6.998;2024-01-16T14:49:18;8.20;;;4.20;;
35084;SDS011;21267;51.032;6.998;2024-01-16T14:51:44;12.52;;;3.38;;
35084;SDS011;21267;51.032;6.998;2024-01-16T14:54:11;10.05;;;4.28;;
35084;SDS011;21267;51.032;6.998;2024-01-16T14:56:38;7.25;;;3.95;;
35084;SDS011;21267;51.032;6.998;2024-01-16T14:59:05;6.20;;;4.40;;
35084;SDS011;21267;51.032;6.998;2024-01-16T15:01:32;7.85;;;4.18;;
35084;SDS011;21267;51.032;6.998;2024-01-16T15:03:59;9.73;;;4.03;;
35084;SDS011;21267;51.032;6.998;2024-01-16T15:06:26;8.13;;;3.30;;
35084;SDS011;21267;51.032;6.998;2024-01-16T15:08:54;10.25;;;3.45;;
35084;SDS011;21267;51.032;6.998;2024-01-16T15:11:21;9.07;;;4.00;;
35084;SDS011;21267;51.032;6.998;2024-01-16T15:13:48;8.10;;;3.50;;
35084;SDS011;21267;51.032;6.998;2024-01-16T15:16:16;6.88;;;3.70;;
35084;SDS011;21267;51.032;6.998;2024-01-16T15:18:45;10.02;;;3.20;;
35084;SDS011;21267;51.032;6.998;2024-01-16T15:21:12;7.78;;;3.65;;
35084;SDS011;21267;51.032;6.998;2024-01-16T15:23:39;6.03;;;2.83;;
35084;SDS011;21267;51.032;6.998;2024-01-16T15:26:06;7.95;;;2.72;;
35084;SDS011;21267;51.032;6.998;2024-01-16T15:28:33;8.00;;;3.20;;
35084;SDS011;21267;51.032;6.998;2024-01-16T15:31:02;7.73;;;3.53;;
35084;SDS011;21267;51.032;6.998;2024-01-16T15:33:34;7.88;;;4.63;;
35084;SDS011;21267;51.032;6.998;2024-01-16T15:36:02;8.70;;;4.15;;
35084;SDS011;21267;51.032;6.998;2024-01-16T15:40:57;8.77;;;3.45;;
35084;SDS011;21267;51.032;6.998;2024-01-16T15:43:24;6.40;;;4.07;;
35084;SDS011;21267;51.032;6.998;2024-01-16T15:45:51;9.15;;;4.82;;
35084;SDS011;21267;51.032;6.998;2024-01-16T15:48:18;11.90;;;4.97;;
35084;SDS011;21267;51.032;6.998;2024-01-16T15:50:45;9.93;;;4.90;;
35084;SDS011;21267;51.032;6.998;2024-01-16T15:53:12;9.47;;;5.07;;
35084;SDS011;21267;51.032;6.998;2024-01-16T15:55:42;10.63;;;5.03;;
35084;SDS011;21267;51.032;6.998;2024-01-16T15:58:10;8.45;;;5.30;;
35084;SDS011;21267;51.032;6.998;2024-01-16T16:00:36;10.40;;;4.65;;
35084;SDS011;21267;51.032;6.998;2024-01-16T16:03:04;12.50;;;5.80;;